weather.gov     
National Weather Service

Terminal Aerodrome Forecast
NWS Homepage
This page is being discontinued on March 12, 2014.
The same data is available at this site. Please update your bookmarks.
Thank you, and we apologize for the inconvenience.
Please send an email to SR-SRH.Webmaster@noaa.gov with any concerns.


Current Version
Previous Version:    01  02  03  04  05  06  07  08  09  10  11  12  13  14  15  16  17  18  19  20  21  22  23  24  25  26  27  28  29  30  
   31  32  33  34  35  
[Printable]
568
FTUS45 KBYZ 290533
TAFLVM
TAF
KLVM 290533Z 2906/3006 23032G46KT P6SM BKN100
     FM291000 32015G20KT P6SM OVC050
     FM291200 08015G22KT 4SM -SN OVC015
     FM291800 09015KT 2SM -SN BR BKN005 OVC010
     FM292300 04014KT 4SM -SN BR BKN008 OVC020=


568
FTUS45 KBYZ 290533
TAFLVM
TAF
KLVM 290533Z 2906/3006 23032G46KT P6SM BKN100
     FM291000 32015G20KT P6SM OVC050
     FM291200 08015G22KT 4SM -SN OVC015
     FM291800 09015KT 2SM -SN BR BKN005 OVC010
     FM292300 04014KT 4SM -SN BR BKN008 OVC020=




U.S. Dept. of Commerce
NOAA National Weather Service
1325 East West Highway
Silver Spring, MD 20910
E-mail: w-nws.webmaster@noaa.gov
Page last modified: May 16, 2007
NATIONAL WEATHER SERVICE: for Safety, for Work, for Fun - FOR LIFE